Cenka — TCTG5 — position and weather

sailwx.info

Track history (hours):
 
Tides and Currents Weather Stations Pressure Air Temp Water Temp Dewpoint Dewpoint Depression Visibility Wind Speed Wind Dir Waves Ship Positions

Cenka

Last reported at 2015-Jul-28 00:33 UTC. Time now 2015-Jul-30 00:04 UTC.
Position N 45°24' E 031°01'.

Length 150 m; draft 4.9 m.

Type: Passenger vessel. MMSI: 271002610.

Date/timePositionNaut miles runAvg speedWind from/ knotsBaromVisibWave heightAir tempDewpointWater temp
2015-Jul-28 00:33N 45°24' E 031°01'48 1.7
2015-Jul-26 20:33N 46°11' E 030°47'1414.1
2015-Jul-26 19:33N 45°58' E 030°52'1414.0
2015-Jul-26 18:32N 45°44' E 030°58'1313.8
2015-Jul-26 17:33N 45°31' E 031°02'1514.2
2015-Jul-26 16:31N 45°17' E 031°06'1414.3
2015-Jul-26 15:33N 45°03' E 031°09'  
2015-Jul-24 06:30N 45°47' E 030°55'1212.5
2015-Jul-24 05:33N 45°59' E 030°51'1212.3
2015-Jul-24 04:34N 46°11' E 030°47'5 0.3
2015-Jul-23 13:32N 46°06' E 030°49'  
2015-Jul-20 22:21N 45°16' E 031°03'1615.5
2015-Jul-20 21:18N 45°32' E 030°58'1115.2
2015-Jul-20 20:33N 45°43' E 030°54'1514.5
2015-Jul-20 19:33N 45°58' E 030°51'1414.5
2015-Jul-20 18:34N 46°12' E 030°47'10 9.6
2015-Jul-20 17:32N 46°20' E 030°40'33433.2
2015-Jul-20 07:29N 40°51' E 029°17'335271.4
2015-Jul-20 06:15N 46°21' E 030°39'0 0.0
2015-Jul-19 22:33N 46°21' E 030°39'3 3.2
2015-Jul-19 21:33N 46°19' E 030°43'1010.5
2015-Jul-19 20:34N 46°09' E 030°49'1110.2
2015-Jul-19 19:30N 45°59' E 030°53'1010.1
2015-Jul-19 18:34N 45°49' E 030°56'1010.1
2015-Jul-19 17:33N 45°39' E 030°57'  
Track history (hours):
 
Tides and Currents Weather Stations Pressure Air Temp Water Temp Dewpoint Dewpoint Depression Visibility Wind Speed Wind Dir Waves Ship Positions

Cenka

Last reported at 2015-Jul-28 00:33 UTC. Time now 2015-Jul-30 00:04 UTC.
Position N 45°24' E 031°01'.

Length 150 m; draft 4.9 m.

Type: Passenger vessel. MMSI: 271002610.

Date/timePositionNaut miles runAvg speedWind from/ knotsBaromVisibWave heightAir tempDewpointWater temp
2015-Jul-28 00:33N 45°24' E 031°01'48 1.7
2015-Jul-26 20:33N 46°11' E 030°47'1414.1
2015-Jul-26 19:33N 45°58' E 030°52'1414.0
2015-Jul-26 18:32N 45°44' E 030°58'1313.8
2015-Jul-26 17:33N 45°31' E 031°02'1514.2
2015-Jul-26 16:31N 45°17' E 031°06'1414.3
2015-Jul-26 15:33N 45°03' E 031°09'  
2015-Jul-24 06:30N 45°47' E 030°55'1212.5
2015-Jul-24 05:33N 45°59' E 030°51'1212.3
2015-Jul-24 04:34N 46°11' E 030°47'5 0.3
2015-Jul-23 13:32N 46°06' E 030°49'  
2015-Jul-20 22:21N 45°16' E 031°03'1615.5
2015-Jul-20 21:18N 45°32' E 030°58'1115.2
2015-Jul-20 20:33N 45°43' E 030°54'1514.5
2015-Jul-20 19:33N 45°58' E 030°51'1414.5
2015-Jul-20 18:34N 46°12' E 030°47'10 9.6
2015-Jul-20 17:32N 46°20' E 030°40'33433.2
2015-Jul-20 07:29N 40°51' E 029°17'335271.4
2015-Jul-20 06:15N 46°21' E 030°39'0 0.0
2015-Jul-19 22:33N 46°21' E 030°39'3 3.2
2015-Jul-19 21:33N 46°19' E 030°43'1010.5
2015-Jul-19 20:34N 46°09' E 030°49'1110.2
2015-Jul-19 19:30N 45°59' E 030°53'1010.1
2015-Jul-19 18:34N 45°49' E 030°56'1010.1
2015-Jul-19 17:33N 45°39' E 030°57'  

Dump ship's entire track history